sensor_id;sensor_type;location;lat;lon;timestamp;P1;durP1;ratioP1;P2;durP2;ratioP2
72557;SDS011;60583;50.094;8.748;2023-08-06T00:01:11;7.32;;;4.65;;
72557;SDS011;60583;50.094;8.748;2023-08-06T00:03:37;7.43;;;4.45;;
72557;SDS011;60583;50.094;8.748;2023-08-06T00:06:02;7.10;;;4.50;;
72557;SDS011;60583;50.094;8.748;2023-08-06T00:08:29;7.07;;;4.18;;
72557;SDS011;60583;50.094;8.748;2023-08-06T00:10:55;7.07;;;3.72;;
72557;SDS011;60583;50.094;8.748;2023-08-06T00:13:20;6.18;;;4.13;;
72557;SDS011;60583;50.094;8.748;2023-08-06T00:15:45;6.10;;;4.30;;
72557;SDS011;60583;50.094;8.748;2023-08-06T00:18:11;6.95;;;4.10;;
72557;SDS011;60583;50.094;8.748;2023-08-06T00:20:38;5.88;;;3.95;;
72557;SDS011;60583;50.094;8.748;2023-08-06T00:23:04;6.25;;;4.03;;
72557;SDS011;60583;50.094;8.748;2023-08-06T00:25:29;6.60;;;4.53;;
72557;SDS011;60583;50.094;8.748;2023-08-06T00:27:55;6.45;;;3.80;;
72557;SDS011;60583;50.094;8.748;2023-08-06T00:30:21;6.90;;;3.58;;
72557;SDS011;60583;50.094;8.748;2023-08-06T00:32:46;6.80;;;4.07;;
72557;SDS011;60583;50.094;8.748;2023-08-06T00:35:12;7.28;;;3.78;;
72557;SDS011;60583;50.094;8.748;2023-08-06T00:37:38;6.25;;;3.65;;
72557;SDS011;60583;50.094;8.748;2023-08-06T00:40:04;5.40;;;3.83;;
72557;SDS011;60583;50.094;8.748;2023-08-06T00:42:31;6.32;;;3.67;;
72557;SDS011;60583;50.094;8.748;2023-08-06T00:44:56;6.78;;;3.83;;
72557;SDS011;60583;50.094;8.748;2023-08-06T00:47:22;6.07;;;4.30;;
72557;SDS011;60583;50.094;8.748;2023-08-06T00:49:47;7.32;;;4.00;;
72557;SDS011;60583;50.094;8.748;2023-08-06T00:52:13;6.40;;;4.10;;
72557;SDS011;60583;50.094;8.748;2023-08-06T00:54:39;5.47;;;3.70;;
72557;SDS011;60583;50.094;8.748;2023-08-06T00:57:04;6.15;;;3.50;;
72557;SDS011;60583;50.094;8.748;2023-08-06T00:59:32;5.57;;;3.33;;
72557;SDS011;60583;50.094;8.748;2023-08-06T01:01:57;5.72;;;4.20;;
72557;SDS011;60583;50.094;8.748;2023-08-06T01:04:23;6.72;;;3.65;;
72557;SDS011;60583;50.094;8.748;2023-08-06T01:06:52;6.50;;;4.28;;
72557;SDS011;60583;50.094;8.748;2023-08-06T01:09:45;6.45;;;4.00;;
72557;SDS011;60583;50.094;8.748;2023-08-06T01:12:31;6.43;;;3.30;;
72557;SDS011;60583;50.094;8.748;2023-08-06T01:15:07;8.00;;;4.47;;
72557;SDS011;60583;50.094;8.748;2023-08-06T01:17:58;6.20;;;4.10;;
72557;SDS011;60583;50.094;8.748;2023-08-06T01:20:30;5.18;;;3.25;;
72557;SDS011;60583;50.094;8.748;2023-08-06T01:22:55;5.85;;;4.05;;
72557;SDS011;60583;50.094;8.748;2023-08-06T01:25:21;5.78;;;3.58;;
72557;SDS011;60583;50.094;8.748;2023-08-06T01:27:55;5.22;;;3.50;;
72557;SDS011;60583;50.094;8.748;2023-08-06T01:30:29;5.75;;;3.42;;
72557;SDS011;60583;50.094;8.748;2023-08-06T01:33:01;5.97;;;3.35;;
72557;SDS011;60583;50.094;8.748;2023-08-06T01:35:29;6.57;;;3.63;;
72557;SDS011;60583;50.094;8.748;2023-08-06T01:37:55;7.05;;;3.60;;
72557;SDS011;60583;50.094;8.748;2023-08-06T01:40:21;7.35;;;3.40;;
72557;SDS011;60583;50.094;8.748;2023-08-06T01:42:47;6.07;;;4.30;;
72557;SDS011;60583;50.094;8.748;2023-08-06T01:45:12;5.75;;;3.42;;
72557;SDS011;60583;50.094;8.748;2023-08-06T01:47:37;6.32;;;3.47;;
72557;SDS011;60583;50.094;8.748;2023-08-06T01:50:03;6.25;;;3.83;;
72557;SDS011;60583;50.094;8.748;2023-08-06T01:52:29;5.28;;;3.30;;
72557;SDS011;60583;50.094;8.748;2023-08-06T01:54:54;6.03;;;3.58;;
72557;SDS011;60583;50.094;8.748;2023-08-06T01:57:20;7.07;;;3.83;;
72557;SDS011;60583;50.094;8.748;2023-08-06T01:59:45;5.03;;;3.65;;
72557;SDS011;60583;50.094;8.748;2023-08-06T02:02:11;6.03;;;3.45;;
72557;SDS011;60583;50.094;8.748;2023-08-06T02:04:37;5.65;;;3.75;;
72557;SDS011;60583;50.094;8.748;2023-08-06T02:07:02;5.75;;;3.47;;
72557;SDS011;60583;50.094;8.748;2023-08-06T02:09:27;5.78;;;3.97;;
72557;SDS011;60583;50.094;8.748;2023-08-06T02:11:53;5.68;;;3.95;;
72557;SDS011;60583;50.094;8.748;2023-08-06T02:14:18;6.22;;;3.55;;
72557;SDS011;60583;50.094;8.748;2023-08-06T02:16:44;5.95;;;3.28;;
72557;SDS011;60583;50.094;8.748;2023-08-06T02:19:09;5.43;;;3.35;;
72557;SDS011;60583;50.094;8.748;2023-08-06T02:21:34;6.40;;;3.00;;
72557;SDS011;60583;50.094;8.748;2023-08-06T02:24:00;6.22;;;3.42;;
72557;SDS011;60583;50.094;8.748;2023-08-06T02:26:26;6.15;;;3.70;;
72557;SDS011;60583;50.094;8.748;2023-08-06T02:28:51;5.50;;;2.92;;
72557;SDS011;60583;50.094;8.748;2023-08-06T02:31:16;6.43;;;3.40;;
72557;SDS011;60583;50.094;8.748;2023-08-06T02:33:42;4.78;;;3.13;;
72557;SDS011;60583;50.094;8.748;2023-08-06T02:36:07;5.65;;;3.58;;
72557;SDS011;60583;50.094;8.748;2023-08-06T02:38:32;6.38;;;3.13;;
72557;SDS011;60583;50.094;8.748;2023-08-06T02:40:58;6.05;;;3.85;;
72557;SDS011;60583;50.094;8.748;2023-08-06T02:43:27;7.60;;;3.20;;
72557;SDS011;60583;50.094;8.748;2023-08-06T02:45:56;5.80;;;3.30;;
72557;SDS011;60583;50.094;8.748;2023-08-06T02:48:22;5.68;;;3.00;;
72557;SDS011;60583;50.094;8.748;2023-08-06T02:50:47;5.78;;;3.65;;
72557;SDS011;60583;50.094;8.748;2023-08-06T02:53:12;6.72;;;3.67;;
72557;SDS011;60583;50.094;8.748;2023-08-06T02:55:38;5.35;;;3.40;;
72557;SDS011;60583;50.094;8.748;2023-08-06T02:58:09;6.20;;;3.08;;
72557;SDS011;60583;50.094;8.748;2023-08-06T03:00:35;5.68;;;2.80;;
72557;SDS011;60583;50.094;8.748;2023-08-06T03:03:00;6.68;;;3.10;;
72557;SDS011;60583;50.094;8.748;2023-08-06T03:05:25;5.00;;;2.90;;
72557;SDS011;60583;50.094;8.748;2023-08-06T03:07:51;6.18;;;3.10;;
72557;SDS011;60583;50.094;8.748;2023-08-06T03:10:16;6.38;;;2.80;;
72557;SDS011;60583;50.094;8.748;2023-08-06T03:12:42;5.60;;;3.25;;
72557;SDS011;60583;50.094;8.748;2023-08-06T03:15:07;6.47;;;3.08;;
72557;SDS011;60583;50.094;8.748;2023-08-06T03:17:33;5.00;;;2.78;;
72557;SDS011;60583;50.094;8.748;2023-08-06T03:19:58;5.22;;;2.90;;
72557;SDS011;60583;50.094;8.748;2023-08-06T03:22:24;4.80;;;2.83;;
72557;SDS011;60583;50.094;8.748;2023-08-06T03:24:52;5.68;;;2.63;;
72557;SDS011;60583;50.094;8.748;2023-08-06T03:27:17;6.85;;;3.33;;
72557;SDS011;60583;50.094;8.748;2023-08-06T03:29:43;6.43;;;3.10;;
72557;SDS011;60583;50.094;8.748;2023-08-06T03:32:08;6.68;;;3.13;;
72557;SDS011;60583;50.094;8.748;2023-08-06T03:34:33;7.97;;;3.63;;
72557;SDS011;60583;50.094;8.748;2023-08-06T03:36:59;6.63;;;2.97;;
72557;SDS011;60583;50.094;8.748;2023-08-06T03:39:24;7.07;;;4.53;;
72557;SDS011;60583;50.094;8.748;2023-08-06T03:41:49;6.93;;;2.50;;
72557;SDS011;60583;50.094;8.748;2023-08-06T03:44:15;4.78;;;2.63;;
72557;SDS011;60583;50.094;8.748;2023-08-06T03:46:41;6.50;;;3.15;;
72557;SDS011;60583;50.094;8.748;2023-08-06T03:49:06;5.63;;;3.60;;
72557;SDS011;60583;50.094;8.748;2023-08-06T03:51:31;5.57;;;2.63;;
72557;SDS011;60583;50.094;8.748;2023-08-06T03:53:57;4.05;;;2.30;;
72557;SDS011;60583;50.094;8.748;2023-08-06T03:56:22;6.10;;;2.33;;
72557;SDS011;60583;50.094;8.748;2023-08-06T03:58:48;5.07;;;2.55;;
72557;SDS011;60583;50.094;8.748;2023-08-06T04:01:13;5.10;;;2.20;;
72557;SDS011;60583;50.094;8.748;2023-08-06T04:03:39;4.55;;;2.40;;
72557;SDS011;60583;50.094;8.748;2023-08-06T04:06:04;5.15;;;2.20;;
72557;SDS011;60583;50.094;8.748;2023-08-06T04:08:30;4.90;;;2.67;;
72557;SDS011;60583;50.094;8.748;2023-08-06T04:10:56;5.07;;;2.25;;
72557;SDS011;60583;50.094;8.748;2023-08-06T04:13:21;6.80;;;2.30;;
72557;SDS011;60583;50.094;8.748;2023-08-06T04:15:47;5.72;;;2.30;;
72557;SDS011;60583;50.094;8.748;2023-08-06T04:18:13;4.38;;;2.80;;
72557;SDS011;60583;50.094;8.748;2023-08-06T04:20:42;6.45;;;2.33;;
72557;SDS011;60583;50.094;8.748;2023-08-06T04:23:11;4.47;;;2.40;;
72557;SDS011;60583;50.094;8.748;2023-08-06T04:25:37;6.22;;;2.90;;
72557;SDS011;60583;50.094;8.748;2023-08-06T04:28:03;6.03;;;2.50;;
72557;SDS011;60583;50.094;8.748;2023-08-06T04:30:28;5.68;;;2.25;;
72557;SDS011;60583;50.094;8.748;2023-08-06T04:32:54;5.10;;;2.38;;
72557;SDS011;60583;50.094;8.748;2023-08-06T04:35:21;6.00;;;2.63;;
72557;SDS011;60583;50.094;8.748;2023-08-06T04:37:47;4.00;;;2.08;;
72557;SDS011;60583;50.094;8.748;2023-08-06T04:40:12;6.20;;;2.50;;
72557;SDS011;60583;50.094;8.748;2023-08-06T04:42:38;5.55;;;1.95;;
72557;SDS011;60583;50.094;8.748;2023-08-06T04:45:04;11.85;;;2.35;;
72557;SDS011;60583;50.094;8.748;2023-08-06T04:47:30;6.35;;;2.22;;
72557;SDS011;60583;50.094;8.748;2023-08-06T04:49:55;5.63;;;2.35;;
72557;SDS011;60583;50.094;8.748;2023-08-06T04:52:20;5.05;;;2.65;;
72557;SDS011;60583;50.094;8.748;2023-08-06T04:54:46;5.25;;;2.25;;
72557;SDS011;60583;50.094;8.748;2023-08-06T04:57:11;5.03;;;1.98;;
72557;SDS011;60583;50.094;8.748;2023-08-06T04:59:37;5.68;;;2.10;;
72557;SDS011;60583;50.094;8.748;2023-08-06T05:02:02;7.47;;;2.50;;
72557;SDS011;60583;50.094;8.748;2023-08-06T05:04:28;4.53;;;2.38;;
72557;SDS011;60583;50.094;8.748;2023-08-06T05:06:53;4.15;;;2.10;;
72557;SDS011;60583;50.094;8.748;2023-08-06T05:09:19;5.47;;;2.20;;
72557;SDS011;60583;50.094;8.748;2023-08-06T05:11:45;5.25;;;2.55;;
72557;SDS011;60583;50.094;8.748;2023-08-06T05:14:12;4.47;;;2.40;;
72557;SDS011;60583;50.094;8.748;2023-08-06T05:16:37;4.70;;;2.78;;
72557;SDS011;60583;50.094;8.748;2023-08-06T05:19:02;5.20;;;2.50;;
72557;SDS011;60583;50.094;8.748;2023-08-06T05:21:28;4.72;;;2.13;;
72557;SDS011;60583;50.094;8.748;2023-08-06T05:23:54;3.95;;;1.90;;
72557;SDS011;60583;50.094;8.748;2023-08-06T05:26:19;4.97;;;2.10;;
72557;SDS011;60583;50.094;8.748;2023-08-06T05:28:45;5.80;;;2.28;;
72557;SDS011;60583;50.094;8.748;2023-08-06T05:31:11;3.60;;;1.73;;
72557;SDS011;60583;50.094;8.748;2023-08-06T05:33:36;3.67;;;1.90;;
72557;SDS011;60583;50.094;8.748;2023-08-06T05:36:01;4.25;;;2.10;;
72557;SDS011;60583;50.094;8.748;2023-08-06T05:38:27;3.65;;;1.90;;
72557;SDS011;60583;50.094;8.748;2023-08-06T05:40:52;4.13;;;1.80;;
72557;SDS011;60583;50.094;8.748;2023-08-06T05:43:18;5.00;;;2.00;;
72557;SDS011;60583;50.094;8.748;2023-08-06T05:45:46;3.60;;;1.80;;
72557;SDS011;60583;50.094;8.748;2023-08-06T05:48:12;4.43;;;1.90;;
72557;SDS011;60583;50.094;8.748;2023-08-06T05:50:37;3.80;;;1.90;;
72557;SDS011;60583;50.094;8.748;2023-08-06T05:53:02;4.15;;;1.70;;
72557;SDS011;60583;50.094;8.748;2023-08-06T05:55:28;3.97;;;1.80;;
72557;SDS011;60583;50.094;8.748;2023-08-06T05:57:53;5.47;;;2.50;;
72557;SDS011;60583;50.094;8.748;2023-08-06T06:00:20;6.05;;;2.10;;
72557;SDS011;60583;50.094;8.748;2023-08-06T06:02:46;5.63;;;1.90;;
72557;SDS011;60583;50.094;8.748;2023-08-06T06:05:11;5.05;;;1.83;;
72557;SDS011;60583;50.094;8.748;2023-08-06T06:07:37;4.85;;;2.28;;
72557;SDS011;60583;50.094;8.748;2023-08-06T06:10:02;5.25;;;1.77;;
72557;SDS011;60583;50.094;8.748;2023-08-06T06:12:28;4.85;;;1.70;;
72557;SDS011;60583;50.094;8.748;2023-08-06T06:14:53;3.88;;;1.65;;
72557;SDS011;60583;50.094;8.748;2023-08-06T06:17:19;4.40;;;1.33;;
72557;SDS011;60583;50.094;8.748;2023-08-06T06:19:44;3.97;;;1.23;;
72557;SDS011;60583;50.094;8.748;2023-08-06T06:22:09;3.80;;;1.50;;
72557;SDS011;60583;50.094;8.748;2023-08-06T06:24:35;3.78;;;1.10;;
72557;SDS011;60583;50.094;8.748;2023-08-06T06:27:00;4.35;;;1.27;;
72557;SDS011;60583;50.094;8.748;2023-08-06T06:29:25;2.72;;;1.00;;
72557;SDS011;60583;50.094;8.748;2023-08-06T06:31:51;3.60;;;1.00;;
72557;SDS011;60583;50.094;8.748;2023-08-06T06:34:16;2.58;;;1.00;;
72557;SDS011;60583;50.094;8.748;2023-08-06T06:36:42;4.82;;;1.33;;
72557;SDS011;60583;50.094;8.748;2023-08-06T06:39:07;3.75;;;1.23;;
72557;SDS011;60583;50.094;8.748;2023-08-06T06:41:33;3.15;;;1.10;;
72557;SDS011;60583;50.094;8.748;2023-08-06T06:43:58;3.40;;;1.10;;
72557;SDS011;60583;50.094;8.748;2023-08-06T06:46:24;3.42;;;1.00;;
72557;SDS011;60583;50.094;8.748;2023-08-06T06:48:49;3.13;;;1.50;;
72557;SDS011;60583;50.094;8.748;2023-08-06T06:51:15;4.03;;;1.30;;
72557;SDS011;60583;50.094;8.748;2023-08-06T06:53:40;3.05;;;1.10;;
72557;SDS011;60583;50.094;8.748;2023-08-06T06:56:05;3.55;;;1.27;;
72557;SDS011;60583;50.094;8.748;2023-08-06T06:58:31;3.80;;;1.23;;
72557;SDS011;60583;50.094;8.748;2023-08-06T07:00:57;2.72;;;1.48;;
72557;SDS011;60583;50.094;8.748;2023-08-06T07:03:23;2.60;;;1.00;;
72557;SDS011;60583;50.094;8.748;2023-08-06T07:05:48;3.22;;;1.50;;
72557;SDS011;60583;50.094;8.748;2023-08-06T07:08:14;3.50;;;1.27;;
72557;SDS011;60583;50.094;8.748;2023-08-06T07:10:40;2.85;;;1.20;;
72557;SDS011;60583;50.094;8.748;2023-08-06T07:13:06;3.38;;;1.30;;
72557;SDS011;60583;50.094;8.748;2023-08-06T07:15:32;4.63;;;1.30;;
72557;SDS011;60583;50.094;8.748;2023-08-06T07:17:57;3.00;;;1.08;;
72557;SDS011;60583;50.094;8.748;2023-08-06T07:20:23;4.63;;;1.20;;
72557;SDS011;60583;50.094;8.748;2023-08-06T07:22:48;4.85;;;1.30;;
72557;SDS011;60583;50.094;8.748;2023-08-06T07:25:15;2.83;;;0.90;;
72557;SDS011;60583;50.094;8.748;2023-08-06T07:27:41;3.78;;;1.50;;
72557;SDS011;60583;50.094;8.748;2023-08-06T07:30:06;3.10;;;1.10;;
72557;SDS011;60583;50.094;8.748;2023-08-06T07:32:32;3.47;;;1.10;;
72557;SDS011;60583;50.094;8.748;2023-08-06T07:34:58;4.45;;;1.02;;
72557;SDS011;60583;50.094;8.748;2023-08-06T07:37:29;3.03;;;0.88;;
72557;SDS011;60583;50.094;8.748;2023-08-06T07:40:03;3.20;;;1.40;;
72557;SDS011;60583;50.094;8.748;2023-08-06T07:42:29;3.45;;;1.00;;
72557;SDS011;60583;50.094;8.748;2023-08-06T07:44:55;2.72;;;0.70;;
72557;SDS011;60583;50.094;8.748;2023-08-06T07:47:22;2.10;;;0.70;;
72557;SDS011;60583;50.094;8.748;2023-08-06T07:49:48;2.97;;;0.70;;
72557;SDS011;60583;50.094;8.748;2023-08-06T07:52:13;2.65;;;0.70;;
72557;SDS011;60583;50.094;8.748;2023-08-06T07:54:39;3.25;;;0.70;;
72557;SDS011;60583;50.094;8.748;2023-08-06T07:57:05;4.18;;;1.00;;
72557;SDS011;60583;50.094;8.748;2023-08-06T07:59:30;3.05;;;0.77;;
72557;SDS011;60583;50.094;8.748;2023-08-06T08:01:59;3.42;;;0.82;;
72557;SDS011;60583;50.094;8.748;2023-08-06T08:04:25;2.85;;;0.93;;
72557;SDS011;60583;50.094;8.748;2023-08-06T08:06:50;1.80;;;0.80;;
72557;SDS011;60583;50.094;8.748;2023-08-06T08:09:15;3.40;;;0.70;;
72557;SDS011;60583;50.094;8.748;2023-08-06T08:11:41;2.28;;;0.70;;
72557;SDS011;60583;50.094;8.748;2023-08-06T08:14:07;2.60;;;0.70;;
72557;SDS011;60583;50.094;8.748;2023-08-06T08:16:32;1.73;;;0.77;;
72557;SDS011;60583;50.094;8.748;2023-08-06T08:18:58;2.60;;;0.90;;
72557;SDS011;60583;50.094;8.748;2023-08-06T08:21:23;3.65;;;0.98;;
72557;SDS011;60583;50.094;8.748;2023-08-06T08:23:50;3.30;;;0.95;;
72557;SDS011;60583;50.094;8.748;2023-08-06T08:26:16;2.80;;;0.70;;
72557;SDS011;60583;50.094;8.748;2023-08-06T08:28:41;3.92;;;1.17;;
72557;SDS011;60583;50.094;8.748;2023-08-06T08:31:08;3.13;;;1.05;;
72557;SDS011;60583;50.094;8.748;2023-08-06T08:33:34;4.07;;;1.50;;
72557;SDS011;60583;50.094;8.748;2023-08-06T08:36:00;2.50;;;1.00;;
72557;SDS011;60583;50.094;8.748;2023-08-06T08:38:25;2.78;;;1.23;;
72557;SDS011;60583;50.094;8.748;2023-08-06T08:40:51;3.00;;;1.40;;
72557;SDS011;60583;50.094;8.748;2023-08-06T08:43:19;3.83;;;1.30;;
72557;SDS011;60583;50.094;8.748;2023-08-06T08:45:46;3.85;;;1.27;;
72557;SDS011;60583;50.094;8.748;2023-08-06T08:48:15;3.75;;;1.23;;
72557;SDS011;60583;50.094;8.748;2023-08-06T08:50:44;2.38;;;1.27;;
72557;SDS011;60583;50.094;8.748;2023-08-06T08:53:10;2.53;;;1.00;;
72557;SDS011;60583;50.094;8.748;2023-08-06T08:55:37;3.70;;;1.40;;
72557;SDS011;60583;50.094;8.748;2023-08-06T08:58:09;2.40;;;1.00;;
72557;SDS011;60583;50.094;8.748;2023-08-06T09:00:35;3.58;;;1.25;;
72557;SDS011;60583;50.094;8.748;2023-08-06T09:03:01;3.97;;;1.02;;
72557;SDS011;60583;50.094;8.748;2023-08-06T09:05:30;2.55;;;1.10;;
72557;SDS011;60583;50.094;8.748;2023-08-06T09:07:57;3.20;;;1.13;;
72557;SDS011;60583;50.094;8.748;2023-08-06T09:10:27;2.13;;;0.68;;
72557;SDS011;60583;50.094;8.748;2023-08-06T09:12:53;1.90;;;0.90;;
72557;SDS011;60583;50.094;8.748;2023-08-06T09:15:21;1.83;;;0.82;;
72557;SDS011;60583;50.094;8.748;2023-08-06T09:17:50;2.05;;;0.85;;
72557;SDS011;60583;50.094;8.748;2023-08-06T09:20:16;3.53;;;0.70;;
72557;SDS011;60583;50.094;8.748;2023-08-06T09:22:42;2.67;;;0.75;;
72557;SDS011;60583;50.094;8.748;2023-08-06T09:25:09;2.03;;;0.73;;
72557;SDS011;60583;50.094;8.748;2023-08-06T09:27:36;2.15;;;1.00;;
72557;SDS011;60583;50.094;8.748;2023-08-06T09:30:02;3.15;;;1.00;;
72557;SDS011;60583;50.094;8.748;2023-08-06T09:32:47;2.17;;;0.90;;
72557;SDS011;60583;50.094;8.748;2023-08-06T09:35:19;3.67;;;0.68;;
72557;SDS011;60583;50.094;8.748;2023-08-06T09:37:45;2.45;;;0.60;;
72557;SDS011;60583;50.094;8.748;2023-08-06T09:40:27;1.80;;;0.77;;
72557;SDS011;60583;50.094;8.748;2023-08-06T09:42:54;2.92;;;0.70;;
72557;SDS011;60583;50.094;8.748;2023-08-06T09:45:20;3.25;;;0.98;;
72557;SDS011;60583;50.094;8.748;2023-08-06T09:47:47;2.03;;;0.50;;
72557;SDS011;60583;50.094;8.748;2023-08-06T09:50:17;3.60;;;0.60;;
72557;SDS011;60583;50.094;8.748;2023-08-06T09:52:43;1.60;;;0.47;;
72557;SDS011;60583;50.094;8.748;2023-08-06T09:55:12;1.48;;;0.50;;
72557;SDS011;60583;50.094;8.748;2023-08-06T09:57:39;1.73;;;0.80;;
72557;SDS011;60583;50.094;8.748;2023-08-06T10:00:06;2.03;;;0.60;;
72557;SDS011;60583;50.094;8.748;2023-08-06T10:02:34;2.42;;;0.60;;
72557;SDS011;60583;50.094;8.748;2023-08-06T10:05:06;3.15;;;0.80;;
72557;SDS011;60583;50.094;8.748;2023-08-06T10:07:32;4.20;;;0.70;;
72557;SDS011;60583;50.094;8.748;2023-08-06T10:09:59;2.13;;;0.90;;
72557;SDS011;60583;50.094;8.748;2023-08-06T10:12:25;1.92;;;0.70;;
72557;SDS011;60583;50.094;8.748;2023-08-06T10:14:54;1.77;;;0.52;;
72557;SDS011;60583;50.094;8.748;2023-08-06T10:17:22;1.45;;;0.60;;
72557;SDS011;60583;50.094;8.748;2023-08-06T10:19:49;1.70;;;0.55;;
72557;SDS011;60583;50.094;8.748;2023-08-06T10:22:19;1.90;;;0.57;;
72557;SDS011;60583;50.094;8.748;2023-08-06T10:27:20;1.92;;;0.70;;
72557;SDS011;60583;50.094;8.748;2023-08-06T10:29:47;2.40;;;0.60;;
72557;SDS011;60583;50.094;8.748;2023-08-06T10:32:12;2.80;;;1.10;;
72557;SDS011;60583;50.094;8.748;2023-08-06T10:34:53;2.22;;;0.90;;
72557;SDS011;60583;50.094;8.748;2023-08-06T10:37:35;2.38;;;0.80;;
72557;SDS011;60583;50.094;8.748;2023-08-06T10:40:02;2.78;;;0.75;;
72557;SDS011;60583;50.094;8.748;2023-08-06T10:42:29;3.40;;;1.40;;
72557;SDS011;60583;50.094;8.748;2023-08-06T10:47:59;1.73;;;0.70;;
72557;SDS011;60583;50.094;8.748;2023-08-06T10:50:27;2.22;;;0.80;;
72557;SDS011;60583;50.094;8.748;2023-08-06T10:52:52;1.95;;;0.52;;
72557;SDS011;60583;50.094;8.748;2023-08-06T10:55:29;2.10;;;0.70;;
72557;SDS011;60583;50.094;8.748;2023-08-06T10:57:55;3.30;;;1.30;;
72557;SDS011;60583;50.094;8.748;2023-08-06T11:00:24;1.80;;;0.70;;
72557;SDS011;60583;50.094;8.748;2023-08-06T11:02:53;1.13;;;0.57;;
72557;SDS011;60583;50.094;8.748;2023-08-06T11:05:19;1.88;;;0.70;;
72557;SDS011;60583;50.094;8.748;2023-08-06T11:07:44;1.33;;;0.50;;
72557;SDS011;60583;50.094;8.748;2023-08-06T11:10:10;1.58;;;0.50;;
72557;SDS011;60583;50.094;8.748;2023-08-06T11:12:37;2.42;;;0.50;;
72557;SDS011;60583;50.094;8.748;2023-08-06T11:15:04;1.63;;;0.60;;
72557;SDS011;60583;50.094;8.748;2023-08-06T11:17:30;1.88;;;0.80;;
72557;SDS011;60583;50.094;8.748;2023-08-06T11:20:03;2.20;;;0.55;;
72557;SDS011;60583;50.094;8.748;2023-08-06T11:22:32;1.50;;;0.80;;
72557;SDS011;60583;50.094;8.748;2023-08-06T11:24:58;1.27;;;0.70;;
72557;SDS011;60583;50.094;8.748;2023-08-06T11:27:26;2.83;;;0.90;;
72557;SDS011;60583;50.094;8.748;2023-08-06T11:29:53;2.70;;;1.10;;
72557;SDS011;60583;50.094;8.748;2023-08-06T11:32:18;2.85;;;1.10;;
72557;SDS011;60583;50.094;8.748;2023-08-06T11:34:44;1.55;;;0.70;;
72557;SDS011;60583;50.094;8.748;2023-08-06T11:37:09;1.30;;;0.55;;
72557;SDS011;60583;50.094;8.748;2023-08-06T11:39:35;1.65;;;0.60;;
72557;SDS011;60583;50.094;8.748;2023-08-06T11:42:02;1.35;;;0.52;;
72557;SDS011;60583;50.094;8.748;2023-08-06T11:44:32;3.58;;;1.00;;
72557;SDS011;60583;50.094;8.748;2023-08-06T11:47:00;1.45;;;0.60;;
72557;SDS011;60583;50.094;8.748;2023-08-06T11:52:23;2.60;;;0.77;;
72557;SDS011;60583;50.094;8.748;2023-08-06T11:57:29;1.00;;;0.50;;
72557;SDS011;60583;50.094;8.748;2023-08-06T12:00:01;1.95;;;0.60;;
72557;SDS011;60583;50.094;8.748;2023-08-06T12:02:30;2.70;;;0.60;;
72557;SDS011;60583;50.094;8.748;2023-08-06T12:05:15;0.75;;;0.45;;
72557;SDS011;60583;50.094;8.748;2023-08-06T12:07:42;2.65;;;0.50;;
72557;SDS011;60583;50.094;8.748;2023-08-06T12:10:09;1.50;;;0.50;;
72557;SDS011;60583;50.094;8.748;2023-08-06T12:12:35;1.63;;;0.50;;
72557;SDS011;60583;50.094;8.748;2023-08-06T12:15:01;2.28;;;0.40;;
72557;SDS011;60583;50.094;8.748;2023-08-06T12:17:27;2.97;;;0.55;;
72557;SDS011;60583;50.094;8.748;2023-08-06T12:19:52;1.40;;;0.60;;
72557;SDS011;60583;50.094;8.748;2023-08-06T12:22:18;1.50;;;0.60;;
72557;SDS011;60583;50.094;8.748;2023-08-06T12:24:44;2.17;;;0.63;;
72557;SDS011;60583;50.094;8.748;2023-08-06T12:27:10;2.13;;;0.80;;
72557;SDS011;60583;50.094;8.748;2023-08-06T12:29:47;3.35;;;0.90;;
72557;SDS011;60583;50.094;8.748;2023-08-06T12:32:13;3.05;;;1.00;;
72557;SDS011;60583;50.094;8.748;2023-08-06T12:34:39;2.05;;;0.65;;
72557;SDS011;60583;50.094;8.748;2023-08-06T12:37:06;1.63;;;0.50;;
72557;SDS011;60583;50.094;8.748;2023-08-06T12:39:37;1.27;;;0.50;;
72557;SDS011;60583;50.094;8.748;2023-08-06T12:42:03;1.88;;;0.40;;
72557;SDS011;60583;50.094;8.748;2023-08-06T12:44:30;1.38;;;0.60;;
72557;SDS011;60583;50.094;8.748;2023-08-06T12:46:56;1.20;;;0.50;;
72557;SDS011;60583;50.094;8.748;2023-08-06T12:49:22;1.30;;;0.47;;
72557;SDS011;60583;50.094;8.748;2023-08-06T12:51:48;1.23;;;0.45;;
72557;SDS011;60583;50.094;8.748;2023-08-06T12:54:16;0.85;;;0.30;;
72557;SDS011;60583;50.094;8.748;2023-08-06T12:56:43;1.45;;;0.45;;
72557;SDS011;60583;50.094;8.748;2023-08-06T12:59:08;1.20;;;0.40;;
72557;SDS011;60583;50.094;8.748;2023-08-06T13:01:34;1.70;;;0.73;;
72557;SDS011;60583;50.094;8.748;2023-08-06T13:03:59;1.48;;;0.40;;
72557;SDS011;60583;50.094;8.748;2023-08-06T13:06:25;2.15;;;0.75;;
72557;SDS011;60583;50.094;8.748;2023-08-06T13:08:50;1.85;;;0.77;;
72557;SDS011;60583;50.094;8.748;2023-08-06T13:11:16;2.72;;;1.00;;
72557;SDS011;60583;50.094;8.748;2023-08-06T13:13:41;3.30;;;1.10;;
72557;SDS011;60583;50.094;8.748;2023-08-06T13:16:07;3.10;;;1.20;;
72557;SDS011;60583;50.094;8.748;2023-08-06T13:18:32;2.15;;;0.73;;
72557;SDS011;60583;50.094;8.748;2023-08-06T13:20:58;2.38;;;0.80;;
72557;SDS011;60583;50.094;8.748;2023-08-06T13:23:23;4.13;;;0.70;;
72557;SDS011;60583;50.094;8.748;2023-08-06T13:25:48;4.05;;;0.70;;
72557;SDS011;60583;50.094;8.748;2023-08-06T13:28:14;2.03;;;0.73;;
72557;SDS011;60583;50.094;8.748;2023-08-06T13:30:39;2.30;;;0.50;;
72557;SDS011;60583;50.094;8.748;2023-08-06T13:33:07;4.30;;;1.20;;
72557;SDS011;60583;50.094;8.748;2023-08-06T13:35:33;2.05;;;0.70;;
72557;SDS011;60583;50.094;8.748;2023-08-06T13:37:59;1.70;;;0.70;;
72557;SDS011;60583;50.094;8.748;2023-08-06T13:40:24;2.03;;;0.70;;
72557;SDS011;60583;50.094;8.748;2023-08-06T13:42:50;2.50;;;0.70;;
72557;SDS011;60583;50.094;8.748;2023-08-06T13:45:15;2.10;;;0.80;;
72557;SDS011;60583;50.094;8.748;2023-08-06T13:47:41;2.17;;;0.68;;
72557;SDS011;60583;50.094;8.748;2023-08-06T13:50:06;2.30;;;0.80;;
72557;SDS011;60583;50.094;8.748;2023-08-06T13:52:33;2.22;;;0.60;;
72557;SDS011;60583;50.094;8.748;2023-08-06T13:55:00;2.67;;;0.80;;
72557;SDS011;60583;50.094;8.748;2023-08-06T13:57:25;2.60;;;0.77;;
72557;SDS011;60583;50.094;8.748;2023-08-06T13:59:51;2.17;;;0.63;;
72557;SDS011;60583;50.094;8.748;2023-08-06T14:02:16;2.67;;;0.80;;
72557;SDS011;60583;50.094;8.748;2023-08-06T14:04:42;1.85;;;0.68;;
72557;SDS011;60583;50.094;8.748;2023-08-06T14:07:07;2.80;;;0.80;;
72557;SDS011;60583;50.094;8.748;2023-08-06T14:09:32;5.72;;;3.47;;
72557;SDS011;60583;50.094;8.748;2023-08-06T14:11:59;2.08;;;0.80;;
72557;SDS011;60583;50.094;8.748;2023-08-06T14:14:25;2.72;;;0.70;;
72557;SDS011;60583;50.094;8.748;2023-08-06T14:16:53;4.18;;;1.33;;
72557;SDS011;60583;50.094;8.748;2023-08-06T14:19:19;4.53;;;1.48;;
72557;SDS011;60583;50.094;8.748;2023-08-06T14:21:45;5.63;;;2.20;;
72557;SDS011;60583;50.094;8.748;2023-08-06T14:24:10;3.13;;;1.02;;
72557;SDS011;60583;50.094;8.748;2023-08-06T14:26:36;3.25;;;1.00;;
72557;SDS011;60583;50.094;8.748;2023-08-06T14:29:02;2.60;;;0.90;;
72557;SDS011;60583;50.094;8.748;2023-08-06T14:31:28;2.50;;;0.80;;
72557;SDS011;60583;50.094;8.748;2023-08-06T14:33:53;2.75;;;0.80;;
72557;SDS011;60583;50.094;8.748;2023-08-06T14:36:18;2.42;;;0.80;;
72557;SDS011;60583;50.094;8.748;2023-08-06T14:38:44;2.10;;;0.90;;
72557;SDS011;60583;50.094;8.748;2023-08-06T14:41:09;3.58;;;1.35;;
72557;SDS011;60583;50.094;8.748;2023-08-06T14:43:36;3.42;;;1.10;;
72557;SDS011;60583;50.094;8.748;2023-08-06T14:46:01;3.30;;;1.60;;
72557;SDS011;60583;50.094;8.748;2023-08-06T14:48:27;3.90;;;1.40;;
72557;SDS011;60583;50.094;8.748;2023-08-06T14:50:53;3.10;;;0.93;;
72557;SDS011;60583;50.094;8.748;2023-08-06T14:53:19;2.58;;;0.95;;
72557;SDS011;60583;50.094;8.748;2023-08-06T14:55:44;2.65;;;1.00;;